Perry, Pennsylvania
Current Conditions -  °F | °C
As of 2:54 PM on Friday 24 Oct 2014 (Local Time) from KRDG Reporting Station
Clear Clear  
Wind Chill: 69°   Ceiling: Unl
Heat Index: 69°   Visibility: 10mi
Dew Point: 42°   Wind: 18mph
Humidity: 38%   Direction: 310°NW
Pressure: 29.83"   Gusts: NA
Location:  40.5494°N, 75.999°W
Report Text: KRDG 241854Z 31016KT 10SM CLR 21/06 A2983 RMK AO2 SLP104 T02060056
Loading
Personal Weather Stations






























Interactive Weather Map
Tropical Storm Tracking
New forecast layout! Learn more

10-Day Weather Forecast

Advertisements
Track Severe Weather on mobile